sensor_id;sensor_type;location;lat;lon;timestamp;P1;durP1;ratioP1;P2;durP2;ratioP2
19329;SDS011;9799;48.214;16.388;2023-02-02T00:00:41;0.40;;;0.40;;
19329;SDS011;9799;48.214;16.388;2023-02-02T00:04:02;2.27;;;0.40;;
19329;SDS011;9799;48.214;16.388;2023-02-02T00:07:24;0.33;;;0.33;;
19329;SDS011;9799;48.214;16.388;2023-02-02T00:10:46;0.30;;;0.30;;
19329;SDS011;9799;48.214;16.388;2023-02-02T00:14:08;0.20;;;0.20;;
19329;SDS011;9799;48.214;16.388;2023-02-02T00:17:30;0.30;;;0.30;;
19329;SDS011;9799;48.214;16.388;2023-02-02T00:20:51;0.50;;;0.40;;
19329;SDS011;9799;48.214;16.388;2023-02-02T00:24:13;0.30;;;0.30;;
19329;SDS011;9799;48.214;16.388;2023-02-02T00:27:38;0.33;;;0.30;;
19329;SDS011;9799;48.214;16.388;2023-02-02T00:30:59;0.30;;;0.30;;
19329;SDS011;9799;48.214;16.388;2023-02-02T00:34:21;0.97;;;0.40;;
19329;SDS011;9799;48.214;16.388;2023-02-02T00:37:42;0.40;;;0.40;;
19329;SDS011;9799;48.214;16.388;2023-02-02T00:41:04;0.80;;;0.40;;
19329;SDS011;9799;48.214;16.388;2023-02-02T00:44:27;0.40;;;0.40;;
19329;SDS011;9799;48.214;16.388;2023-02-02T00:48:05;2.60;;;0.60;;
19329;SDS011;9799;48.214;16.388;2023-02-02T00:51:26;0.73;;;0.60;;
19329;SDS011;9799;48.214;16.388;2023-02-02T00:54:48;0.63;;;0.40;;
19329;SDS011;9799;48.214;16.388;2023-02-02T00:58:09;0.50;;;0.50;;
19329;SDS011;9799;48.214;16.388;2023-02-02T01:01:31;0.73;;;0.40;;
19329;SDS011;9799;48.214;16.388;2023-02-02T01:04:53;2.03;;;0.37;;
19329;SDS011;9799;48.214;16.388;2023-02-02T01:08:14;0.40;;;0.40;;
19329;SDS011;9799;48.214;16.388;2023-02-02T01:11:35;0.33;;;0.27;;
19329;SDS011;9799;48.214;16.388;2023-02-02T01:14:56;2.13;;;0.50;;
19329;SDS011;9799;48.214;16.388;2023-02-02T01:18:19;2.47;;;0.60;;
19329;SDS011;9799;48.214;16.388;2023-02-02T01:21:40;1.07;;;0.40;;
19329;SDS011;9799;48.214;16.388;2023-02-02T01:25:02;0.70;;;0.70;;
19329;SDS011;9799;48.214;16.388;2023-02-02T01:28:24;0.53;;;0.40;;
19329;SDS011;9799;48.214;16.388;2023-02-02T01:31:46;0.40;;;0.40;;
19329;SDS011;9799;48.214;16.388;2023-02-02T01:35:08;0.20;;;0.20;;
19329;SDS011;9799;48.214;16.388;2023-02-02T01:38:30;0.20;;;0.20;;
19329;SDS011;9799;48.214;16.388;2023-02-02T01:41:51;0.30;;;0.30;;
19329;SDS011;9799;48.214;16.388;2023-02-02T01:45:17;0.20;;;0.20;;
19329;SDS011;9799;48.214;16.388;2023-02-02T01:48:42;0.20;;;0.20;;
19329;SDS011;9799;48.214;16.388;2023-02-02T01:52:07;0.27;;;0.27;;
19329;SDS011;9799;48.214;16.388;2023-02-02T01:55:30;0.20;;;0.20;;
19329;SDS011;9799;48.214;16.388;2023-02-02T01:58:54;0.47;;;0.40;;
19329;SDS011;9799;48.214;16.388;2023-02-02T02:02:16;0.40;;;0.20;;
19329;SDS011;9799;48.214;16.388;2023-02-02T02:05:39;0.20;;;0.20;;
19329;SDS011;9799;48.214;16.388;2023-02-02T02:09:04;0.47;;;0.47;;
19329;SDS011;9799;48.214;16.388;2023-02-02T02:12:26;0.20;;;0.20;;
19329;SDS011;9799;48.214;16.388;2023-02-02T02:15:48;0.30;;;0.30;;
19329;SDS011;9799;48.214;16.388;2023-02-02T02:19:40;0.20;;;0.20;;
19329;SDS011;9799;48.214;16.388;2023-02-02T02:23:59;0.20;;;0.20;;
19329;SDS011;9799;48.214;16.388;2023-02-02T02:28:05;0.20;;;0.20;;
19329;SDS011;9799;48.214;16.388;2023-02-02T02:32:01;0.27;;;0.27;;
19329;SDS011;9799;48.214;16.388;2023-02-02T02:35:31;0.50;;;0.40;;
19329;SDS011;9799;48.214;16.388;2023-02-02T02:39:00;0.53;;;0.40;;
19329;SDS011;9799;48.214;16.388;2023-02-02T02:42:26;0.30;;;0.30;;
19329;SDS011;9799;48.214;16.388;2023-02-02T02:45:50;0.30;;;0.30;;
19329;SDS011;9799;48.214;16.388;2023-02-02T02:49:14;0.40;;;0.40;;
19329;SDS011;9799;48.214;16.388;2023-02-02T02:52:35;0.20;;;0.20;;
19329;SDS011;9799;48.214;16.388;2023-02-02T02:56:00;0.30;;;0.30;;
19329;SDS011;9799;48.214;16.388;2023-02-02T02:59:33;0.20;;;0.20;;
19329;SDS011;9799;48.214;16.388;2023-02-02T03:03:01;0.43;;;0.43;;
19329;SDS011;9799;48.214;16.388;2023-02-02T03:06:31;0.47;;;0.40;;
19329;SDS011;9799;48.214;16.388;2023-02-02T03:10:00;0.47;;;0.47;;
19329;SDS011;9799;48.214;16.388;2023-02-02T03:13:24;0.63;;;0.30;;
19329;SDS011;9799;48.214;16.388;2023-02-02T03:16:46;0.30;;;0.30;;
19329;SDS011;9799;48.214;16.388;2023-02-02T03:20:11;0.50;;;0.30;;
19329;SDS011;9799;48.214;16.388;2023-02-02T03:23:33;0.53;;;0.30;;
19329;SDS011;9799;48.214;16.388;2023-02-02T03:26:55;0.37;;;0.37;;
19329;SDS011;9799;48.214;16.388;2023-02-02T03:30:16;0.23;;;0.23;;
19329;SDS011;9799;48.214;16.388;2023-02-02T03:33:38;0.50;;;0.43;;
19329;SDS011;9799;48.214;16.388;2023-02-02T03:36:59;0.60;;;0.40;;
19329;SDS011;9799;48.214;16.388;2023-02-02T03:40:22;0.40;;;0.40;;
19329;SDS011;9799;48.214;16.388;2023-02-02T03:43:43;1.13;;;0.60;;
19329;SDS011;9799;48.214;16.388;2023-02-02T03:47:05;0.60;;;0.60;;
19329;SDS011;9799;48.214;16.388;2023-02-02T03:50:26;0.70;;;0.57;;
19329;SDS011;9799;48.214;16.388;2023-02-02T03:53:47;1.03;;;0.40;;
19329;SDS011;9799;48.214;16.388;2023-02-02T03:57:09;0.50;;;0.50;;
19329;SDS011;9799;48.214;16.388;2023-02-02T04:00:31;0.50;;;0.50;;
19329;SDS011;9799;48.214;16.388;2023-02-02T04:03:52;0.57;;;0.50;;
19329;SDS011;9799;48.214;16.388;2023-02-02T04:07:13;0.60;;;0.60;;
19329;SDS011;9799;48.214;16.388;2023-02-02T04:10:34;3.27;;;0.70;;
19329;SDS011;9799;48.214;16.388;2023-02-02T04:13:59;0.67;;;0.60;;
19329;SDS011;9799;48.214;16.388;2023-02-02T04:17:20;0.70;;;0.63;;
19329;SDS011;9799;48.214;16.388;2023-02-02T04:20:41;0.87;;;0.80;;
19329;SDS011;9799;48.214;16.388;2023-02-02T04:24:02;1.00;;;0.80;;
19329;SDS011;9799;48.214;16.388;2023-02-02T04:27:24;1.30;;;0.90;;
19329;SDS011;9799;48.214;16.388;2023-02-02T04:30:47;1.77;;;0.80;;
19329;SDS011;9799;48.214;16.388;2023-02-02T04:34:08;1.27;;;0.70;;
19329;SDS011;9799;48.214;16.388;2023-02-02T04:37:29;0.73;;;0.73;;
19329;SDS011;9799;48.214;16.388;2023-02-02T04:40:51;1.37;;;0.73;;
19329;SDS011;9799;48.214;16.388;2023-02-02T04:44:12;0.83;;;0.80;;
19329;SDS011;9799;48.214;16.388;2023-02-02T04:47:36;0.80;;;0.70;;
19329;SDS011;9799;48.214;16.388;2023-02-02T04:50:57;1.90;;;1.10;;
19329;SDS011;9799;48.214;16.388;2023-02-02T04:54:19;1.07;;;0.90;;
19329;SDS011;9799;48.214;16.388;2023-02-02T04:57:40;2.00;;;1.10;;
19329;SDS011;9799;48.214;16.388;2023-02-02T05:01:07;0.90;;;0.80;;
19329;SDS011;9799;48.214;16.388;2023-02-02T05:04:30;1.80;;;0.80;;
19329;SDS011;9799;48.214;16.388;2023-02-02T05:07:51;1.90;;;1.10;;
19329;SDS011;9799;48.214;16.388;2023-02-02T05:11:13;0.90;;;0.90;;
19329;SDS011;9799;48.214;16.388;2023-02-02T05:14:35;1.80;;;0.63;;
19329;SDS011;9799;48.214;16.388;2023-02-02T05:17:56;0.67;;;0.63;;
19329;SDS011;9799;48.214;16.388;2023-02-02T05:21:19;2.63;;;1.80;;
19329;SDS011;9799;48.214;16.388;2023-02-02T05:24:40;1.87;;;1.20;;
19329;SDS011;9799;48.214;16.388;2023-02-02T05:28:01;0.90;;;0.90;;
19329;SDS011;9799;48.214;16.388;2023-02-02T05:31:22;0.80;;;0.80;;
19329;SDS011;9799;48.214;16.388;2023-02-02T05:34:44;1.33;;;1.23;;
19329;SDS011;9799;48.214;16.388;2023-02-02T05:38:06;1.00;;;0.90;;
19329;SDS011;9799;48.214;16.388;2023-02-02T05:41:27;1.10;;;1.00;;
19329;SDS011;9799;48.214;16.388;2023-02-02T05:44:49;5.83;;;1.20;;
19329;SDS011;9799;48.214;16.388;2023-02-02T05:48:10;1.00;;;0.90;;
19329;SDS011;9799;48.214;16.388;2023-02-02T05:51:33;1.90;;;1.07;;
19329;SDS011;9799;48.214;16.388;2023-02-02T05:54:59;2.70;;;1.40;;
19329;SDS011;9799;48.214;16.388;2023-02-02T05:58:20;1.50;;;1.03;;
19329;SDS011;9799;48.214;16.388;2023-02-02T06:01:42;5.57;;;4.30;;
19329;SDS011;9799;48.214;16.388;2023-02-02T06:05:03;1.50;;;1.10;;
19329;SDS011;9799;48.214;16.388;2023-02-02T06:08:25;1.50;;;1.20;;
19329;SDS011;9799;48.214;16.388;2023-02-02T06:11:48;1.73;;;1.13;;
19329;SDS011;9799;48.214;16.388;2023-02-02T06:15:09;2.17;;;1.10;;
19329;SDS011;9799;48.214;16.388;2023-02-02T06:18:31;2.37;;;2.00;;
19329;SDS011;9799;48.214;16.388;2023-02-02T06:21:52;2.73;;;1.40;;
19329;SDS011;9799;48.214;16.388;2023-02-02T06:25:14;3.17;;;1.30;;
19329;SDS011;9799;48.214;16.388;2023-02-02T06:28:36;1.63;;;1.27;;
19329;SDS011;9799;48.214;16.388;2023-02-02T06:31:58;2.80;;;1.03;;
19329;SDS011;9799;48.214;16.388;2023-02-02T06:35:19;1.40;;;1.00;;
19329;SDS011;9799;48.214;16.388;2023-02-02T06:38:40;5.13;;;1.73;;
19329;SDS011;9799;48.214;16.388;2023-02-02T06:42:01;1.27;;;1.13;;
19329;SDS011;9799;48.214;16.388;2023-02-02T06:45:24;2.30;;;1.70;;
19329;SDS011;9799;48.214;16.388;2023-02-02T06:48:46;2.53;;;0.90;;
19329;SDS011;9799;48.214;16.388;2023-02-02T06:52:07;1.20;;;1.10;;
19329;SDS011;9799;48.214;16.388;2023-02-02T06:55:28;2.50;;;0.83;;
19329;SDS011;9799;48.214;16.388;2023-02-02T06:58:50;1.60;;;1.13;;
19329;SDS011;9799;48.214;16.388;2023-02-02T07:02:12;1.10;;;1.00;;
19329;SDS011;9799;48.214;16.388;2023-02-02T07:05:34;5.50;;;2.40;;
19329;SDS011;9799;48.214;16.388;2023-02-02T07:08:55;6.10;;;3.17;;
19329;SDS011;9799;48.214;16.388;2023-02-02T07:12:16;3.03;;;1.63;;
19329;SDS011;9799;48.214;16.388;2023-02-02T07:15:38;1.37;;;1.20;;
19329;SDS011;9799;48.214;16.388;2023-02-02T07:19:01;1.03;;;0.93;;
19329;SDS011;9799;48.214;16.388;2023-02-02T07:22:22;2.73;;;1.37;;
19329;SDS011;9799;48.214;16.388;2023-02-02T07:25:43;3.07;;;1.10;;
19329;SDS011;9799;48.214;16.388;2023-02-02T07:29:05;1.97;;;1.20;;
19329;SDS011;9799;48.214;16.388;2023-02-02T07:32:26;1.70;;;1.27;;
19329;SDS011;9799;48.214;16.388;2023-02-02T07:35:48;1.67;;;1.37;;
19329;SDS011;9799;48.214;16.388;2023-02-02T07:39:10;2.33;;;1.30;;
19329;SDS011;9799;48.214;16.388;2023-02-02T07:42:31;4.80;;;1.70;;
19329;SDS011;9799;48.214;16.388;2023-02-02T07:45:52;2.70;;;1.50;;
19329;SDS011;9799;48.214;16.388;2023-02-02T07:49:14;2.10;;;1.47;;
19329;SDS011;9799;48.214;16.388;2023-02-02T07:52:39;3.30;;;1.60;;
19329;SDS011;9799;48.214;16.388;2023-02-02T07:56:07;3.63;;;1.43;;
19329;SDS011;9799;48.214;16.388;2023-02-02T07:59:30;3.00;;;1.40;;
19329;SDS011;9799;48.214;16.388;2023-02-02T08:02:51;2.77;;;1.93;;
19329;SDS011;9799;48.214;16.388;2023-02-02T08:06:13;2.60;;;1.53;;
19329;SDS011;9799;48.214;16.388;2023-02-02T08:09:38;2.20;;;1.80;;
19329;SDS011;9799;48.214;16.388;2023-02-02T08:12:59;2.13;;;1.70;;
19329;SDS011;9799;48.214;16.388;2023-02-02T08:16:21;2.23;;;1.90;;
19329;SDS011;9799;48.214;16.388;2023-02-02T08:19:42;2.80;;;2.20;;
19329;SDS011;9799;48.214;16.388;2023-02-02T08:23:04;1.97;;;1.70;;
19329;SDS011;9799;48.214;16.388;2023-02-02T08:26:33;2.47;;;1.57;;
19329;SDS011;9799;48.214;16.388;2023-02-02T08:29:54;2.10;;;1.50;;
19329;SDS011;9799;48.214;16.388;2023-02-02T08:33:15;4.60;;;1.33;;
19329;SDS011;9799;48.214;16.388;2023-02-02T08:36:36;2.53;;;2.07;;
19329;SDS011;9799;48.214;16.388;2023-02-02T08:39:58;2.87;;;1.90;;
19329;SDS011;9799;48.214;16.388;2023-02-02T08:43:20;5.97;;;2.40;;
19329;SDS011;9799;48.214;16.388;2023-02-02T08:46:42;3.33;;;2.33;;
19329;SDS011;9799;48.214;16.388;2023-02-02T08:50:03;4.57;;;2.40;;
19329;SDS011;9799;48.214;16.388;2023-02-02T08:53:25;4.50;;;2.70;;
19329;SDS011;9799;48.214;16.388;2023-02-02T08:56:47;4.97;;;3.17;;
19329;SDS011;9799;48.214;16.388;2023-02-02T09:00:10;3.27;;;1.90;;
19329;SDS011;9799;48.214;16.388;2023-02-02T09:03:32;3.80;;;2.40;;
19329;SDS011;9799;48.214;16.388;2023-02-02T09:06:54;5.20;;;2.13;;
19329;SDS011;9799;48.214;16.388;2023-02-02T09:10:15;5.73;;;2.83;;
19329;SDS011;9799;48.214;16.388;2023-02-02T09:13:37;2.40;;;1.87;;
19329;SDS011;9799;48.214;16.388;2023-02-02T09:17:00;2.77;;;1.77;;
19329;SDS011;9799;48.214;16.388;2023-02-02T09:20:22;5.33;;;2.27;;
19329;SDS011;9799;48.214;16.388;2023-02-02T09:23:43;7.47;;;4.47;;
19329;SDS011;9799;48.214;16.388;2023-02-02T09:27:05;5.70;;;3.10;;
19329;SDS011;9799;48.214;16.388;2023-02-02T09:30:26;5.53;;;2.93;;
19329;SDS011;9799;48.214;16.388;2023-02-02T09:33:49;4.90;;;2.83;;
19329;SDS011;9799;48.214;16.388;2023-02-02T09:37:10;3.70;;;2.27;;
19329;SDS011;9799;48.214;16.388;2023-02-02T09:40:32;2.47;;;1.87;;
19329;SDS011;9799;48.214;16.388;2023-02-02T09:43:56;4.10;;;2.93;;
19329;SDS011;9799;48.214;16.388;2023-02-02T09:47:23;2.60;;;2.10;;
19329;SDS011;9799;48.214;16.388;2023-02-02T09:50:53;2.93;;;2.07;;
19329;SDS011;9799;48.214;16.388;2023-02-02T09:54:20;4.47;;;2.20;;
19329;SDS011;9799;48.214;16.388;2023-02-02T09:57:46;5.77;;;2.50;;
19329;SDS011;9799;48.214;16.388;2023-02-02T10:01:11;4.07;;;2.30;;
19329;SDS011;9799;48.214;16.388;2023-02-02T10:04:35;2.90;;;2.00;;
19329;SDS011;9799;48.214;16.388;2023-02-02T10:08:01;5.30;;;2.67;;
19329;SDS011;9799;48.214;16.388;2023-02-02T10:11:29;5.27;;;2.37;;
19329;SDS011;9799;48.214;16.388;2023-02-02T10:14:55;3.20;;;1.73;;
19329;SDS011;9799;48.214;16.388;2023-02-02T10:18:20;3.13;;;2.23;;
19329;SDS011;9799;48.214;16.388;2023-02-02T10:21:50;3.47;;;2.00;;
19329;SDS011;9799;48.214;16.388;2023-02-02T10:25:16;3.80;;;2.03;;
19329;SDS011;9799;48.214;16.388;2023-02-02T10:28:42;3.83;;;2.13;;
19329;SDS011;9799;48.214;16.388;2023-02-02T10:32:15;5.77;;;2.27;;
19329;SDS011;9799;48.214;16.388;2023-02-02T10:35:42;6.07;;;1.93;;
19329;SDS011;9799;48.214;16.388;2023-02-02T10:39:14;1.40;;;1.30;;
19329;SDS011;9799;48.214;16.388;2023-02-02T10:42:47;3.43;;;2.13;;
19329;SDS011;9799;48.214;16.388;2023-02-02T10:46:34;2.90;;;1.90;;
19329;SDS011;9799;48.214;16.388;2023-02-02T10:50:09;4.03;;;2.20;;
19329;SDS011;9799;48.214;16.388;2023-02-02T10:53:36;2.50;;;1.90;;
19329;SDS011;9799;48.214;16.388;2023-02-02T10:56:58;2.77;;;2.07;;
19329;SDS011;9799;48.214;16.388;2023-02-02T11:00:24;2.40;;;1.93;;
19329;SDS011;9799;48.214;16.388;2023-02-02T11:03:51;1.77;;;1.53;;
19329;SDS011;9799;48.214;16.388;2023-02-02T11:07:32;3.80;;;1.87;;
19329;SDS011;9799;48.214;16.388;2023-02-02T11:10:54;3.90;;;2.10;;
19329;SDS011;9799;48.214;16.388;2023-02-02T11:14:19;3.03;;;2.30;;
19329;SDS011;9799;48.214;16.388;2023-02-02T11:17:49;3.93;;;2.30;;
19329;SDS011;9799;48.214;16.388;2023-02-02T11:21:15;3.43;;;2.13;;
19329;SDS011;9799;48.214;16.388;2023-02-02T11:24:44;4.77;;;2.50;;
19329;SDS011;9799;48.214;16.388;2023-02-02T11:28:11;3.73;;;2.73;;
19329;SDS011;9799;48.214;16.388;2023-02-02T11:31:38;4.10;;;2.70;;
19329;SDS011;9799;48.214;16.388;2023-02-02T11:35:12;3.77;;;2.10;;
19329;SDS011;9799;48.214;16.388;2023-02-02T11:38:39;3.73;;;2.33;;
19329;SDS011;9799;48.214;16.388;2023-02-02T11:42:01;5.53;;;2.33;;
19329;SDS011;9799;48.214;16.388;2023-02-02T11:45:27;2.40;;;1.93;;
19329;SDS011;9799;48.214;16.388;2023-02-02T11:48:55;4.80;;;2.47;;
19329;SDS011;9799;48.214;16.388;2023-02-02T11:52:21;5.70;;;2.63;;
19329;SDS011;9799;48.214;16.388;2023-02-02T11:55:45;5.90;;;2.50;;
19329;SDS011;9799;48.214;16.388;2023-02-02T11:59:08;2.60;;;2.20;;
19329;SDS011;9799;48.214;16.388;2023-02-02T12:02:48;2.73;;;2.00;;
19329;SDS011;9799;48.214;16.388;2023-02-02T12:06:16;2.20;;;2.00;;
19329;SDS011;9799;48.214;16.388;2023-02-02T12:09:41;5.67;;;2.87;;
19329;SDS011;9799;48.214;16.388;2023-02-02T12:13:04;7.03;;;2.63;;
19329;SDS011;9799;48.214;16.388;2023-02-02T12:16:40;6.33;;;3.20;;
19329;SDS011;9799;48.214;16.388;2023-02-02T12:20:14;4.00;;;2.20;;
19329;SDS011;9799;48.214;16.388;2023-02-02T12:23:52;2.80;;;2.03;;
19329;SDS011;9799;48.214;16.388;2023-02-02T12:27:26;6.00;;;2.10;;
19329;SDS011;9799;48.214;16.388;2023-02-02T12:31:00;2.53;;;2.00;;
19329;SDS011;9799;48.214;16.388;2023-02-02T12:34:31;7.33;;;2.90;;
19329;SDS011;9799;48.214;16.388;2023-02-02T12:38:02;3.70;;;2.37;;
19329;SDS011;9799;48.214;16.388;2023-02-02T12:41:35;3.40;;;2.43;;
19329;SDS011;9799;48.214;16.388;2023-02-02T12:45:21;3.17;;;2.10;;
19329;SDS011;9799;48.214;16.388;2023-02-02T12:49:15;4.13;;;2.07;;
19329;SDS011;9799;48.214;16.388;2023-02-02T12:53:04;3.73;;;2.03;;
19329;SDS011;9799;48.214;16.388;2023-02-02T12:56:36;5.17;;;2.30;;
19329;SDS011;9799;48.214;16.388;2023-02-02T13:00:24;4.97;;;2.20;;
19329;SDS011;9799;48.214;16.388;2023-02-02T13:07:45;7.83;;;2.07;;
19329;SDS011;9799;48.214;16.388;2023-02-02T13:11:10;5.17;;;2.60;;
19329;SDS011;9799;48.214;16.388;2023-02-02T13:14:50;4.40;;;2.47;;
19329;SDS011;9799;48.214;16.388;2023-02-02T13:18:17;4.43;;;1.93;;
19329;SDS011;9799;48.214;16.388;2023-02-02T13:21:42;4.53;;;2.43;;
19329;SDS011;9799;48.214;16.388;2023-02-02T13:25:06;3.37;;;2.37;;
19329;SDS011;9799;48.214;16.388;2023-02-02T13:28:37;3.33;;;2.33;;
19329;SDS011;9799;48.214;16.388;2023-02-02T13:32:03;3.27;;;2.20;;
19329;SDS011;9799;48.214;16.388;2023-02-02T13:35:33;4.60;;;2.63;;
19329;SDS011;9799;48.214;16.388;2023-02-02T13:39:00;5.77;;;2.13;;
19329;SDS011;9799;48.214;16.388;2023-02-02T13:42:34;4.57;;;2.20;;
19329;SDS011;9799;48.214;16.388;2023-02-02T13:46:03;2.80;;;2.30;;
19329;SDS011;9799;48.214;16.388;2023-02-02T13:49:31;6.10;;;2.53;;
19329;SDS011;9799;48.214;16.388;2023-02-02T13:53:06;5.07;;;2.60;;
19329;SDS011;9799;48.214;16.388;2023-02-02T13:56:42;3.63;;;2.13;;
19329;SDS011;9799;48.214;16.388;2023-02-02T14:00:14;2.43;;;2.03;;
19329;SDS011;9799;48.214;16.388;2023-02-02T14:03:38;4.60;;;2.33;;
19329;SDS011;9799;48.214;16.388;2023-02-02T14:07:01;4.53;;;1.87;;
19329;SDS011;9799;48.214;16.388;2023-02-02T14:10:27;3.27;;;2.33;;
19329;SDS011;9799;48.214;16.388;2023-02-02T14:13:52;3.27;;;1.63;;
19329;SDS011;9799;48.214;16.388;2023-02-02T14:21:20;3.53;;;2.30;;
19329;SDS011;9799;48.214;16.388;2023-02-02T14:29:33;6.70;;;2.70;;
19329;SDS011;9799;48.214;16.388;2023-02-02T14:36:49;4.60;;;1.80;;
19329;SDS011;9799;48.214;16.388;2023-02-02T14:40:29;2.73;;;1.60;;
19329;SDS011;9799;48.214;16.388;2023-02-02T14:44:00;2.30;;;1.73;;
19329;SDS011;9799;48.214;16.388;2023-02-02T14:51:10;2.20;;;1.27;;
19329;SDS011;9799;48.214;16.388;2023-02-02T14:54:35;2.57;;;1.53;;
19329;SDS011;9799;48.214;16.388;2023-02-02T14:58:00;2.40;;;1.83;;
19329;SDS011;9799;48.214;16.388;2023-02-02T15:01:25;3.73;;;2.00;;
19329;SDS011;9799;48.214;16.388;2023-02-02T15:04:50;6.03;;;2.27;;
19329;SDS011;9799;48.214;16.388;2023-02-02T15:08:22;2.80;;;1.97;;
19329;SDS011;9799;48.214;16.388;2023-02-02T15:16:00;3.50;;;1.90;;
19329;SDS011;9799;48.214;16.388;2023-02-02T15:19:31;3.57;;;2.13;;
19329;SDS011;9799;48.214;16.388;2023-02-02T15:22:56;4.10;;;2.03;;
19329;SDS011;9799;48.214;16.388;2023-02-02T15:26:24;2.83;;;1.70;;
19329;SDS011;9799;48.214;16.388;2023-02-02T15:29:50;3.10;;;1.73;;
19329;SDS011;9799;48.214;16.388;2023-02-02T15:33:20;2.93;;;1.70;;
19329;SDS011;9799;48.214;16.388;2023-02-02T15:36:48;2.70;;;1.30;;
19329;SDS011;9799;48.214;16.388;2023-02-02T15:40:12;2.80;;;1.87;;
19329;SDS011;9799;48.214;16.388;2023-02-02T15:43:39;2.87;;;2.23;;
19329;SDS011;9799;48.214;16.388;2023-02-02T15:47:01;3.53;;;1.80;;
19329;SDS011;9799;48.214;16.388;2023-02-02T15:50:24;3.97;;;1.67;;
19329;SDS011;9799;48.214;16.388;2023-02-02T15:53:47;2.70;;;1.60;;
19329;SDS011;9799;48.214;16.388;2023-02-02T15:57:20;3.43;;;3.13;;
19329;SDS011;9799;48.214;16.388;2023-02-02T16:00:45;3.53;;;2.50;;
19329;SDS011;9799;48.214;16.388;2023-02-02T16:04:15;6.23;;;2.57;;
19329;SDS011;9799;48.214;16.388;2023-02-02T16:07:39;2.37;;;1.90;;
19329;SDS011;9799;48.214;16.388;2023-02-02T16:11:03;2.17;;;1.60;;
19329;SDS011;9799;48.214;16.388;2023-02-02T16:14:27;3.20;;;1.80;;
19329;SDS011;9799;48.214;16.388;2023-02-02T16:17:58;2.37;;;1.63;;
19329;SDS011;9799;48.214;16.388;2023-02-02T16:21:22;3.00;;;1.90;;
19329;SDS011;9799;48.214;16.388;2023-02-02T16:24:46;2.30;;;2.10;;
19329;SDS011;9799;48.214;16.388;2023-02-02T16:28:12;2.33;;;1.67;;
19329;SDS011;9799;48.214;16.388;2023-02-02T16:31:35;3.40;;;2.10;;
19329;SDS011;9799;48.214;16.388;2023-02-02T16:34:57;7.70;;;5.07;;
19329;SDS011;9799;48.214;16.388;2023-02-02T16:38:21;13.07;;;6.03;;
19329;SDS011;9799;48.214;16.388;2023-02-02T16:41:44;10.53;;;5.67;;
19329;SDS011;9799;48.214;16.388;2023-02-02T16:45:11;8.90;;;4.97;;
19329;SDS011;9799;48.214;16.388;2023-02-02T16:48:55;8.73;;;4.80;;
19329;SDS011;9799;48.214;16.388;2023-02-02T16:52:18;5.80;;;3.47;;
19329;SDS011;9799;48.214;16.388;2023-02-02T16:55:41;4.37;;;2.43;;
19329;SDS011;9799;48.214;16.388;2023-02-02T16:59:13;2.33;;;2.13;;
19329;SDS011;9799;48.214;16.388;2023-02-02T17:02:40;2.80;;;2.10;;
19329;SDS011;9799;48.214;16.388;2023-02-02T17:06:07;8.80;;;4.23;;
19329;SDS011;9799;48.214;16.388;2023-02-02T17:09:30;5.37;;;3.53;;
19329;SDS011;9799;48.214;16.388;2023-02-02T17:12:53;10.27;;;5.33;;
19329;SDS011;9799;48.214;16.388;2023-02-02T17:16:15;7.27;;;4.60;;
19329;SDS011;9799;48.214;16.388;2023-02-02T17:19:39;7.40;;;4.50;;
19329;SDS011;9799;48.214;16.388;2023-02-02T17:23:02;5.63;;;4.33;;
19329;SDS011;9799;48.214;16.388;2023-02-02T17:26:28;5.47;;;2.67;;
19329;SDS011;9799;48.214;16.388;2023-02-02T17:29:52;5.37;;;3.63;;
19329;SDS011;9799;48.214;16.388;2023-02-02T17:33:15;5.90;;;4.07;;
19329;SDS011;9799;48.214;16.388;2023-02-02T17:36:39;6.20;;;3.70;;
19329;SDS011;9799;48.214;16.388;2023-02-02T17:40:00;6.73;;;2.97;;
19329;SDS011;9799;48.214;16.388;2023-02-02T17:43:23;2.57;;;2.27;;
19329;SDS011;9799;48.214;16.388;2023-02-02T17:46:44;4.40;;;2.70;;
19329;SDS011;9799;48.214;16.388;2023-02-02T17:50:09;2.83;;;2.27;;
19329;SDS011;9799;48.214;16.388;2023-02-02T17:53:33;4.17;;;2.30;;
19329;SDS011;9799;48.214;16.388;2023-02-02T17:56:58;2.63;;;2.07;;
19329;SDS011;9799;48.214;16.388;2023-02-02T18:00:21;3.70;;;2.97;;
19329;SDS011;9799;48.214;16.388;2023-02-02T18:03:44;3.43;;;2.10;;
19329;SDS011;9799;48.214;16.388;2023-02-02T18:07:06;3.27;;;2.33;;
19329;SDS011;9799;48.214;16.388;2023-02-02T18:10:30;3.93;;;2.60;;
19329;SDS011;9799;48.214;16.388;2023-02-02T18:13:53;5.10;;;2.77;;
19329;SDS011;9799;48.214;16.388;2023-02-02T18:17:15;4.70;;;2.63;;
19329;SDS011;9799;48.214;16.388;2023-02-02T18:20:39;3.73;;;2.93;;
19329;SDS011;9799;48.214;16.388;2023-02-02T18:24:01;2.67;;;1.77;;
19329;SDS011;9799;48.214;16.388;2023-02-02T18:27:24;4.23;;;2.50;;
19329;SDS011;9799;48.214;16.388;2023-02-02T18:30:48;5.50;;;2.63;;
19329;SDS011;9799;48.214;16.388;2023-02-02T18:34:11;6.17;;;2.50;;
19329;SDS011;9799;48.214;16.388;2023-02-02T18:37:33;3.20;;;2.40;;
19329;SDS011;9799;48.214;16.388;2023-02-02T18:40:56;3.00;;;2.30;;
19329;SDS011;9799;48.214;16.388;2023-02-02T18:44:21;3.53;;;2.40;;
19329;SDS011;9799;48.214;16.388;2023-02-02T18:47:44;3.50;;;2.47;;
19329;SDS011;9799;48.214;16.388;2023-02-02T18:51:06;6.60;;;2.87;;
19329;SDS011;9799;48.214;16.388;2023-02-02T18:54:31;4.30;;;2.43;;
19329;SDS011;9799;48.214;16.388;2023-02-02T18:57:58;3.93;;;2.30;;
19329;SDS011;9799;48.214;16.388;2023-02-02T19:01:24;2.50;;;2.03;;
19329;SDS011;9799;48.214;16.388;2023-02-02T19:04:46;3.33;;;2.10;;
19329;SDS011;9799;48.214;16.388;2023-02-02T19:08:22;2.90;;;2.40;;
19329;SDS011;9799;48.214;16.388;2023-02-02T19:11:44;3.67;;;2.30;;
19329;SDS011;9799;48.214;16.388;2023-02-02T19:15:09;4.70;;;3.03;;
19329;SDS011;9799;48.214;16.388;2023-02-02T19:18:34;3.10;;;2.40;;
19329;SDS011;9799;48.214;16.388;2023-02-02T19:21:58;4.57;;;2.90;;
19329;SDS011;9799;48.214;16.388;2023-02-02T19:25:21;2.97;;;2.30;;
19329;SDS011;9799;48.214;16.388;2023-02-02T19:28:44;5.37;;;2.97;;
19329;SDS011;9799;48.214;16.388;2023-02-02T19:32:08;3.20;;;2.83;;
19329;SDS011;9799;48.214;16.388;2023-02-02T19:35:36;5.00;;;3.53;;
19329;SDS011;9799;48.214;16.388;2023-02-02T19:39:00;6.43;;;3.17;;
19329;SDS011;9799;48.214;16.388;2023-02-02T19:42:31;3.57;;;2.60;;
19329;SDS011;9799;48.214;16.388;2023-02-02T19:45:53;5.73;;;3.53;;
19329;SDS011;9799;48.214;16.388;2023-02-02T19:49:21;3.43;;;2.67;;
19329;SDS011;9799;48.214;16.388;2023-02-02T19:52:50;3.53;;;2.87;;
19329;SDS011;9799;48.214;16.388;2023-02-02T19:56:19;4.93;;;3.13;;
19329;SDS011;9799;48.214;16.388;2023-02-02T19:59:44;5.53;;;3.00;;
19329;SDS011;9799;48.214;16.388;2023-02-02T20:03:09;4.10;;;2.87;;
19329;SDS011;9799;48.214;16.388;2023-02-02T20:06:33;4.63;;;3.07;;
19329;SDS011;9799;48.214;16.388;2023-02-02T20:09:59;4.07;;;2.53;;
19329;SDS011;9799;48.214;16.388;2023-02-02T20:13:39;5.87;;;3.37;;
19329;SDS011;9799;48.214;16.388;2023-02-02T20:17:11;5.93;;;3.27;;
19329;SDS011;9799;48.214;16.388;2023-02-02T20:20:40;3.40;;;2.93;;
19329;SDS011;9799;48.214;16.388;2023-02-02T20:24:09;3.93;;;3.33;;
19329;SDS011;9799;48.214;16.388;2023-02-02T20:27:42;5.13;;;2.90;;
19329;SDS011;9799;48.214;16.388;2023-02-02T20:31:07;4.17;;;2.60;;
19329;SDS011;9799;48.214;16.388;2023-02-02T20:34:38;4.93;;;3.17;;
19329;SDS011;9799;48.214;16.388;2023-02-02T20:38:12;4.13;;;3.43;;
19329;SDS011;9799;48.214;16.388;2023-02-02T20:41:41;4.80;;;2.87;;
19329;SDS011;9799;48.214;16.388;2023-02-02T20:45:05;3.23;;;2.90;;
19329;SDS011;9799;48.214;16.388;2023-02-02T20:48:27;5.43;;;3.73;;
19329;SDS011;9799;48.214;16.388;2023-02-02T20:51:50;8.97;;;4.00;;
19329;SDS011;9799;48.214;16.388;2023-02-02T20:55:11;6.37;;;3.70;;
19329;SDS011;9799;48.214;16.388;2023-02-02T20:58:34;5.03;;;3.43;;
19329;SDS011;9799;48.214;16.388;2023-02-02T21:01:57;6.10;;;3.27;;